createdAt,value
2023-02-14T00:02:05.766Z,5
2023-02-14T00:05:05.774Z,5
2023-02-14T00:08:05.797Z,5
2023-02-14T00:11:05.816Z,5
2023-02-14T00:14:05.793Z,5
2023-02-14T00:17:05.803Z,5
2023-02-14T00:20:05.792Z,5
2023-02-14T00:23:05.807Z,5
2023-02-14T00:26:05.802Z,5
2023-02-14T00:29:05.835Z,5
2023-02-14T00:32:05.843Z,5
2023-02-14T00:35:05.811Z,5
2023-02-14T00:38:05.828Z,5
2023-02-14T00:41:05.816Z,5
2023-02-14T00:44:05.821Z,4.9
2023-02-14T00:47:05.854Z,5
2023-02-14T00:50:05.832Z,5
2023-02-14T00:53:05.840Z,4.9
2023-02-14T00:56:05.826Z,4.9
2023-02-14T00:59:05.830Z,4.9
2023-02-14T01:02:05.861Z,4.9
2023-02-14T01:05:05.856Z,4.9
2023-02-14T01:08:05.847Z,4.9
2023-02-14T01:11:05.838Z,4.9
2023-02-14T01:14:05.840Z,4.9
2023-02-14T01:17:05.840Z,4.9
2023-02-14T01:20:05.841Z,4.9
2023-02-14T01:23:05.879Z,4.9
2023-02-14T01:26:05.858Z,4.9
2023-02-14T01:29:05.844Z,4.9
2023-02-14T01:32:05.890Z,4.9
2023-02-14T01:35:05.846Z,4.9
2023-02-14T01:38:05.865Z,4.9
2023-02-14T01:41:05.885Z,4.9
2023-02-14T01:44:05.857Z,4.9
2023-02-14T01:47:05.863Z,4.9
2023-02-14T01:50:05.865Z,4.9
2023-02-14T01:53:05.901Z,4.9
2023-02-14T01:56:05.876Z,4.9
2023-02-14T01:59:05.919Z,4.9
2023-02-14T02:02:05.943Z,4.9
2023-02-14T02:05:05.912Z,4.9
2023-02-14T02:08:05.936Z,4.9
2023-02-14T02:11:05.934Z,4.9
2023-02-14T02:14:05.942Z,4.9
2023-02-14T02:17:05.985Z,4.9
2023-02-14T02:20:05.974Z,4.9
2023-02-14T02:23:05.977Z,4.9
2023-02-14T02:26:05.976Z,4.9
2023-02-14T02:29:05.981Z,4.9
2023-02-14T02:32:06.140Z,4.9
2023-02-14T02:35:06.015Z,4.9
2023-02-14T02:38:06.004Z,4.9
2023-02-14T02:41:05.998Z,4.9
2023-02-14T02:44:06.010Z,4.9
2023-02-14T02:47:06.017Z,4.9
2023-02-14T02:50:06.016Z,4.9
2023-02-14T02:53:06.064Z,4.9
2023-02-14T02:56:06.034Z,4.9
2023-02-14T02:59:06.038Z,4.9
2023-02-14T03:02:06.038Z,4.9
2023-02-14T03:05:06.080Z,4.9
2023-02-14T03:08:06.067Z,4.9
2023-02-14T03:11:06.083Z,4.9
2023-02-14T03:14:06.071Z,4.8
2023-02-14T03:17:06.074Z,4.9
2023-02-14T03:20:06.068Z,4.8
2023-02-14T03:23:06.115Z,4.8
2023-02-14T03:26:06.076Z,4.8
2023-02-14T03:29:06.105Z,4.8
2023-02-14T03:32:06.190Z,4.8
2023-02-14T03:35:06.085Z,4.8
2023-02-14T03:38:06.106Z,4.8
2023-02-14T03:41:06.097Z,4.8
2023-02-14T03:44:06.106Z,4.8
2023-02-14T03:47:06.139Z,4.8
2023-02-14T03:50:06.128Z,4.8
2023-02-14T03:53:06.128Z,4.8
2023-02-14T03:56:06.122Z,4.8
2023-02-14T03:59:06.127Z,4.8
2023-02-14T04:02:06.153Z,4.8
2023-02-14T04:05:06.157Z,4.8
2023-02-14T04:08:06.161Z,4.8
2023-02-14T04:11:06.148Z,4.8
2023-02-14T04:14:06.146Z,4.7
2023-02-14T04:17:06.167Z,4.7
2023-02-14T04:20:06.159Z,4.7
2023-02-14T04:23:06.224Z,4.7
2023-02-14T04:26:06.180Z,4.7
2023-02-14T04:29:06.180Z,4.7
2023-02-14T04:32:06.300Z,4.7
2023-02-14T04:35:06.186Z,4.7
2023-02-14T04:38:06.207Z,4.7
2023-02-14T04:41:06.216Z,4.7
2023-02-14T04:44:06.196Z,4.7
2023-02-14T04:47:06.201Z,4.7
2023-02-14T04:50:06.203Z,4.7
2023-02-14T04:53:06.222Z,4.7
2023-02-14T04:56:06.219Z,4.7
2023-02-14T04:59:06.251Z,4.7
2023-02-14T05:02:06.275Z,4.7
2023-02-14T05:05:06.224Z,4.7
2023-02-14T05:08:06.248Z,4.7
2023-02-14T05:11:06.232Z,4.7
2023-02-14T05:14:06.241Z,4.7
2023-02-14T05:17:06.263Z,4.7
2023-02-14T05:20:06.237Z,4.7
2023-02-14T05:23:06.247Z,4.7
2023-02-14T05:26:06.243Z,4.7
2023-02-14T05:29:06.247Z,4.7
2023-02-14T05:32:06.298Z,4.7
2023-02-14T05:35:06.280Z,4.7
2023-02-14T05:38:06.267Z,4.7
2023-02-14T05:41:06.266Z,4.7
2023-02-14T05:44:06.272Z,4.7
2023-02-14T05:47:06.276Z,4.7
2023-02-14T05:50:06.276Z,4.7
2023-02-14T05:53:06.316Z,4.7
2023-02-14T05:56:06.284Z,4.7
2023-02-14T05:59:06.286Z,4.7
2023-02-14T06:02:06.340Z,4.7
2023-02-14T06:05:06.306Z,4.7
2023-02-14T06:08:06.330Z,4.7
2023-02-14T06:11:06.357Z,4.7
2023-02-14T06:14:06.314Z,4.7
2023-02-14T06:17:06.322Z,4.6
2023-02-14T06:20:06.331Z,4.6
2023-02-14T06:23:06.359Z,4.6
2023-02-14T06:26:06.348Z,4.6
2023-02-14T06:29:06.423Z,4.6
2023-02-14T06:32:06.451Z,4.6
2023-02-14T06:35:06.354Z,4.6
2023-02-14T06:38:06.359Z,4.6
2023-02-14T06:41:06.579Z,4.6
2023-02-14T06:44:06.363Z,4.6
2023-02-14T06:47:06.397Z,4.6
2023-02-14T06:50:06.382Z,4.6
2023-02-14T06:53:06.420Z,4.6
2023-02-14T06:56:06.418Z,4.6
2023-02-14T06:59:06.404Z,4.6
2023-02-14T07:02:06.477Z,4.6
2023-02-14T07:05:06.417Z,4.6
2023-02-14T07:08:06.409Z,4.6
2023-02-14T07:11:06.397Z,4.6
2023-02-14T07:14:06.404Z,4.6
2023-02-14T07:17:06.403Z,4.6
2023-02-14T07:20:06.409Z,4.6
2023-02-14T07:23:06.507Z,4.6
2023-02-14T07:26:06.420Z,4.6
2023-02-14T07:29:06.427Z,4.6
2023-02-14T07:32:06.625Z,4.6
2023-02-14T07:35:06.438Z,4.6
2023-02-14T07:38:06.454Z,4.6
2023-02-14T07:41:06.559Z,4.6
2023-02-14T07:44:06.470Z,4.6
2023-02-14T07:47:06.460Z,4.6
2023-02-14T07:50:06.467Z,4.6
2023-02-14T07:53:06.494Z,4.6
2023-02-14T07:56:06.484Z,4.6
2023-02-14T07:59:06.503Z,4.6
2023-02-14T08:02:06.483Z,4.5
2023-02-14T08:05:06.543Z,4.5
2023-02-14T08:08:06.512Z,4.5
2023-02-14T08:11:06.499Z,4.5
2023-02-14T08:14:06.504Z,4.5
2023-02-14T08:17:06.527Z,4.5
2023-02-14T08:20:06.517Z,4.5
2023-02-14T08:23:06.556Z,4.5
2023-02-14T08:26:06.522Z,4.5
2023-02-14T08:29:06.519Z,4.5
2023-02-14T08:32:06.626Z,4.5
2023-02-14T08:35:06.589Z,4.5
2023-02-14T08:38:06.538Z,4.5
2023-02-14T08:41:08.443Z,4.4
2023-02-14T08:44:06.543Z,4.4
2023-02-14T08:47:06.708Z,4.4
2023-02-14T08:50:06.571Z,4.4
2023-02-14T08:53:06.591Z,4.4
2023-02-14T08:56:06.561Z,4.4
2023-02-14T08:59:06.580Z,4.4
2023-02-14T09:02:06.574Z,4.4
2023-02-14T09:05:06.572Z,4.4
2023-02-14T09:08:06.589Z,4.4
2023-02-14T09:11:06.615Z,4.4
2023-02-14T09:14:06.614Z,4.4
2023-02-14T09:17:06.616Z,4.4
2023-02-14T09:20:06.627Z,4.4
2023-02-14T09:23:06.639Z,4.4
2023-02-14T09:26:06.607Z,4.4
2023-02-14T09:29:06.639Z,4.4
2023-02-14T09:32:06.755Z,4.4
2023-02-14T09:35:06.616Z,4.4
2023-02-14T09:38:06.639Z,4.4
2023-02-14T09:41:06.617Z,4.4
2023-02-14T09:44:06.624Z,4.4
2023-02-14T09:47:06.774Z,4.4
2023-02-14T09:50:06.660Z,4.4
2023-02-14T09:53:06.644Z,4.4
2023-02-14T09:56:06.644Z,4.4
2023-02-14T09:59:06.646Z,4.4
2023-02-14T10:02:06.693Z,4.4
2023-02-14T10:05:06.681Z,4.4
2023-02-14T10:08:06.699Z,4.4
2023-02-14T10:11:06.658Z,4.4
2023-02-14T10:14:06.667Z,4.3
2023-02-14T10:17:06.666Z,4.4
2023-02-14T10:20:06.669Z,4.4
2023-02-14T10:23:06.725Z,4.4
2023-02-14T10:26:06.674Z,4.3
2023-02-14T10:29:06.698Z,4.3
2023-02-14T10:32:06.701Z,4.3
2023-02-14T10:35:06.686Z,4.3
2023-02-14T10:38:06.718Z,4.3
2023-02-14T10:41:06.699Z,4.3
2023-02-14T10:44:06.706Z,4.3
2023-02-14T10:47:06.728Z,4.3
2023-02-14T10:50:06.712Z,4.3
2023-02-14T10:53:06.734Z,4.3
2023-02-14T10:56:06.729Z,4.3
2023-02-14T10:59:06.727Z,4.3
2023-02-14T11:02:06.730Z,4.3
2023-02-14T11:05:06.759Z,4.3
2023-02-14T11:08:06.787Z,4.3
2023-02-14T11:11:06.755Z,4.3
2023-02-14T11:14:06.754Z,4.3
2023-02-14T11:17:06.759Z,4.3
2023-02-14T11:20:06.763Z,4.3
2023-02-14T11:23:06.827Z,4.3
2023-02-14T11:26:06.766Z,4.3
2023-02-14T11:29:06.770Z,4.3
2023-02-14T11:32:06.829Z,4.3
2023-02-14T11:35:06.779Z,4.3
2023-02-14T11:38:06.805Z,4.3
2023-02-14T11:41:06.812Z,4.3
2023-02-14T11:44:06.788Z,4.3
2023-02-14T11:47:08.553Z,4.3
2023-02-14T11:50:06.804Z,4.3
2023-02-14T11:53:06.831Z,4.3
2023-02-14T11:56:06.835Z,4.3
2023-02-14T11:59:06.971Z,4.3
2023-02-14T12:02:06.843Z,4.3
2023-02-14T12:05:06.823Z,4.3
2023-02-14T12:08:06.842Z,4.3
2023-02-14T12:11:06.837Z,4.3
2023-02-14T12:14:06.845Z,4.3
2023-02-14T12:17:06.880Z,4.3
2023-02-14T12:20:06.855Z,4.3
2023-02-14T12:23:06.895Z,4.4
2023-02-14T12:26:06.867Z,4.3
2023-02-14T12:29:06.873Z,4.4
2023-02-14T12:32:06.997Z,4.4
2023-02-14T12:35:06.900Z,4.4
2023-02-14T12:38:06.928Z,4.4
2023-02-14T12:41:06.879Z,4.4
2023-02-14T12:44:06.886Z,4.4
2023-02-14T12:47:06.892Z,4.4
2023-02-14T12:50:06.898Z,4.4
2023-02-14T12:53:06.948Z,4.4
2023-02-14T12:56:06.903Z,4.4
2023-02-14T12:59:06.910Z,4.4
2023-02-14T13:02:06.912Z,4.4
2023-02-14T13:05:06.915Z,4.4
2023-02-14T13:08:06.932Z,4.4
2023-02-14T13:11:06.949Z,4.4
2023-02-14T13:14:06.922Z,4.4
2023-02-14T13:17:06.944Z,4.4
2023-02-14T13:20:06.932Z,4.4
2023-02-14T13:23:06.955Z,4.4
2023-02-14T13:26:06.932Z,4.4
2023-02-14T13:29:06.985Z,4.4
2023-02-14T13:32:06.948Z,4.4
2023-02-14T13:35:06.937Z,4.4
2023-02-14T13:38:06.956Z,4.4
2023-02-14T13:41:06.952Z,4.4
2023-02-14T13:44:06.959Z,4.4
2023-02-14T13:47:06.993Z,4.4
2023-02-14T13:50:06.969Z,4.4
2023-02-14T13:53:06.988Z,4.5
2023-02-14T13:56:06.974Z,4.5
2023-02-14T13:59:06.989Z,4.5
2023-02-14T14:02:06.981Z,4.5
2023-02-14T14:05:07.006Z,4.5
2023-02-14T14:08:07.007Z,4.5
2023-02-14T14:11:06.999Z,4.5
2023-02-14T14:14:06.997Z,4.5
2023-02-14T14:17:07.001Z,4.5
2023-02-14T14:20:07.007Z,4.5
2023-02-14T14:23:07.047Z,4.6
2023-02-14T14:26:07.022Z,4.6
2023-02-14T14:29:07.022Z,4.6
2023-02-14T14:32:07.058Z,4.6
2023-02-14T14:35:07.030Z,4.6
2023-02-14T14:38:07.064Z,4.6
2023-02-14T14:41:07.067Z,4.6
2023-02-14T14:44:07.044Z,4.6
2023-02-14T14:47:07.049Z,4.6
2023-02-14T14:50:07.054Z,4.6
2023-02-14T14:53:07.076Z,4.6
2023-02-14T14:56:07.057Z,4.6
2023-02-14T14:59:07.100Z,4.6
2023-02-14T15:02:07.069Z,4.6
2023-02-14T15:05:07.070Z,4.6
2023-02-14T15:08:07.083Z,4.6
2023-02-14T15:11:07.076Z,4.6
2023-02-14T15:14:07.082Z,4.6
2023-02-14T15:17:07.124Z,4.6
2023-02-14T15:20:07.087Z,4.6
2023-02-14T15:23:07.106Z,4.6
2023-02-14T15:26:07.091Z,4.6
2023-02-14T15:29:07.097Z,4.6
2023-02-14T15:32:07.212Z,4.6
2023-02-14T15:35:07.126Z,4.6
2023-02-14T15:38:07.117Z,4.7
2023-02-14T15:41:07.111Z,4.7
2023-02-14T15:44:07.112Z,4.7
2023-02-14T15:47:07.120Z,4.7
2023-02-14T15:50:07.117Z,4.7
2023-02-14T15:53:07.194Z,4.7
2023-02-14T15:56:07.124Z,4.7
2023-02-14T15:59:07.155Z,4.7
2023-02-14T16:02:07.184Z,4.7
2023-02-14T16:05:07.143Z,4.7
2023-02-14T16:08:07.181Z,4.7
2023-02-14T16:11:07.176Z,4.7
2023-02-14T16:14:07.172Z,4.7
2023-02-14T16:17:07.173Z,4.7
2023-02-14T16:20:07.189Z,4.7
2023-02-14T16:23:07.216Z,4.7
2023-02-14T16:26:07.208Z,4.7
2023-02-14T16:29:07.242Z,4.7
2023-02-14T16:32:16.466Z,4.7
2023-02-14T16:35:07.217Z,4.7
2023-02-14T16:38:07.234Z,4.7
2023-02-14T16:41:07.231Z,4.7
2023-02-14T16:44:07.243Z,4.7
2023-02-14T16:47:07.267Z,4.7
2023-02-14T16:50:07.243Z,4.7
2023-02-14T16:53:07.274Z,4.7
2023-02-14T16:56:07.257Z,4.7
2023-02-14T16:59:07.257Z,4.7
2023-02-14T17:02:07.265Z,4.7
2023-02-14T17:05:07.323Z,4.7
2023-02-14T17:08:07.283Z,4.7
2023-02-14T17:11:07.276Z,4.7
2023-02-14T17:14:07.280Z,4.7
2023-02-14T17:17:07.294Z,4.7
2023-02-14T17:20:07.290Z,4.7
2023-02-14T17:23:07.356Z,4.7
2023-02-14T17:26:07.298Z,4.7
2023-02-14T17:29:07.308Z,4.7
2023-02-14T17:32:07.364Z,4.7
2023-02-14T17:35:07.349Z,4.7
2023-02-14T17:38:07.339Z,4.7
2023-02-14T17:41:07.345Z,4.7
2023-02-14T17:44:07.336Z,4.7
2023-02-14T17:47:07.332Z,4.7
2023-02-14T17:50:07.335Z,4.8
2023-02-14T17:53:07.357Z,4.7
2023-02-14T17:56:07.353Z,4.7
2023-02-14T17:59:07.374Z,4.7
2023-02-14T18:02:07.398Z,4.8
2023-02-14T18:05:07.382Z,4.8
2023-02-14T18:08:07.376Z,4.8
2023-02-14T18:11:07.373Z,4.7
2023-02-14T18:14:07.373Z,4.8
2023-02-14T18:17:07.403Z,4.7
2023-02-14T18:20:07.387Z,4.8
2023-02-14T18:23:07.393Z,4.7
2023-02-14T18:26:07.391Z,4.8
2023-02-14T18:29:07.383Z,4.8
2023-02-14T18:32:07.457Z,4.8
2023-02-14T18:35:07.421Z,4.8
2023-02-14T18:38:07.415Z,4.8
2023-02-14T18:41:07.408Z,4.7
2023-02-14T18:44:07.413Z,4.7
2023-02-14T18:47:07.416Z,4.7
2023-02-14T18:50:07.415Z,4.7
2023-02-14T18:53:07.481Z,4.8
2023-02-14T18:56:07.441Z,4.8
2023-02-14T18:59:07.444Z,4.8
2023-02-14T19:02:07.443Z,4.7
2023-02-14T19:05:07.445Z,4.8
2023-02-14T19:08:07.478Z,4.7
2023-02-14T19:11:07.488Z,4.8
2023-02-14T19:14:07.463Z,4.7
2023-02-14T19:17:07.467Z,4.7
2023-02-14T19:20:07.476Z,4.7
2023-02-14T19:23:07.544Z,4.7
2023-02-14T19:26:07.486Z,4.7
2023-02-14T19:29:07.519Z,4.7
2023-02-14T19:32:07.595Z,4.7
2023-02-14T19:35:07.498Z,4.7
2023-02-14T19:38:07.524Z,4.7
2023-02-14T19:41:07.510Z,4.7
2023-02-14T19:44:07.513Z,4.7
2023-02-14T19:47:15.638Z,4.7
2023-02-14T19:50:07.530Z,4.7
2023-02-14T19:53:07.569Z,4.7
2023-02-14T19:56:07.545Z,4.7
2023-02-14T19:59:07.546Z,4.7
2023-02-14T20:02:07.564Z,4.7
2023-02-14T20:05:07.583Z,4.7
2023-02-14T20:08:07.579Z,4.7
2023-02-14T20:11:07.566Z,4.7
2023-02-14T20:14:07.561Z,4.7
2023-02-14T20:17:07.564Z,4.7
2023-02-14T20:20:07.566Z,4.7
2023-02-14T20:23:07.622Z,4.7
2023-02-14T20:26:07.576Z,4.7
2023-02-14T20:29:07.585Z,4.7
2023-02-14T20:32:07.585Z,4.7
2023-02-14T20:35:07.590Z,4.7
2023-02-14T20:38:07.617Z,4.7
2023-02-14T20:41:07.625Z,4.7
2023-02-14T20:44:07.619Z,4.7
2023-02-14T20:47:07.615Z,4.7
2023-02-14T20:50:07.618Z,4.7
2023-02-14T20:53:07.648Z,4.7
2023-02-14T20:56:07.617Z,4.7
2023-02-14T20:59:07.650Z,4.7
2023-02-14T21:02:07.637Z,4.7
2023-02-14T21:05:07.639Z,4.7
2023-02-14T21:08:07.668Z,4.7
2023-02-14T21:11:07.638Z,4.7
2023-02-14T21:14:07.658Z,4.7
2023-02-14T21:17:07.677Z,4.7
2023-02-14T21:20:07.656Z,4.7
2023-02-14T21:23:07.684Z,4.7
2023-02-14T21:26:07.669Z,4.7
2023-02-14T21:29:07.683Z,4.7
2023-02-14T21:32:07.771Z,4.7
2023-02-14T21:35:07.713Z,4.7
2023-02-14T21:38:07.695Z,4.7
2023-02-14T21:41:07.699Z,4.7
2023-02-14T21:44:07.701Z,4.6
2023-02-14T21:47:07.708Z,4.6
2023-02-14T21:50:07.716Z,4.7
2023-02-14T21:53:07.871Z,4.6
2023-02-14T21:56:07.717Z,4.6
2023-02-14T21:59:07.718Z,4.6
2023-02-14T22:02:07.728Z,4.6
2023-02-14T22:05:07.731Z,4.6
2023-02-14T22:08:07.740Z,4.6
2023-02-14T22:11:07.758Z,4.6
2023-02-14T22:14:07.739Z,4.6
2023-02-14T22:17:07.746Z,4.6
2023-02-14T22:20:07.743Z,4.6
2023-02-14T22:23:07.756Z,4.6
2023-02-14T22:26:07.752Z,4.6
2023-02-14T22:29:07.784Z,4.6
2023-02-14T22:32:07.810Z,4.6
2023-02-14T22:35:07.755Z,4.6
2023-02-14T22:38:07.776Z,4.6
2023-02-14T22:41:07.768Z,4.6
2023-02-14T22:44:07.768Z,4.6
2023-02-14T22:47:07.798Z,4.6
2023-02-14T22:50:07.773Z,4.6
2023-02-14T22:53:07.806Z,4.6
2023-02-14T22:56:07.780Z,4.6
2023-02-14T22:59:07.784Z,4.6
2023-02-14T23:02:07.882Z,4.6
2023-02-14T23:05:07.843Z,4.6
2023-02-14T23:08:07.812Z,4.6
2023-02-14T23:11:07.804Z,4.6
2023-02-14T23:14:07.812Z,4.6
2023-02-14T23:17:07.806Z,4.6
2023-02-14T23:20:07.818Z,4.6
2023-02-14T23:23:07.900Z,4.6
2023-02-14T23:26:07.824Z,4.6
2023-02-14T23:29:07.853Z,4.6
2023-02-14T23:32:07.875Z,4.5
2023-02-14T23:35:07.869Z,4.5
2023-02-14T23:38:07.887Z,4.5
2023-02-14T23:41:07.882Z,4.5
2023-02-14T23:44:07.864Z,4.5
2023-02-14T23:47:07.872Z,4.5
2023-02-14T23:50:07.881Z,4.5
2023-02-14T23:53:07.900Z,4.5
2023-02-14T23:56:07.885Z,4.5
2023-02-14T23:59:07.916Z,4.5
